Vittoria — 9HA3921 — position and weather

sailwx.info

Track history (hours):
 
Tides and Currents Weather Stations Pressure Air Temp Water Temp Dewpoint Dewpoint Depression Visibility Wind Speed Wind Dir Waves Ship Positions

Vittoria

Last reported at 2017-Nov-19 01:06 UTC. Time now 2017-Dec-11 19:09 UTC.
Position N 51°01' W 057°43'.
Warning: this ship's position is 22 days out of date.

Length 292 m; draft 9.7 m.

Type: Cargo ship. MMSI: 256458000.

Date/timePositionNaut miles runAvg speedWind from/ knotsBaromVisibWave heightAir tempDewpointWater temp
2017-Nov-19 01:06N 51°01' W 057°43'212.1
2017-Nov-19 00:58N 51°02' W 057°41'612.3
2017-Nov-19 00:30N 51°06' W 057°34'712.1
2017-Nov-18 23:57N 51°10' W 057°26'  
2017-Nov-11 22:35N 49°49' W 004°28'110.7
2017-Nov-11 22:30N 49°49' W 004°27'1010.7
2017-Nov-11 21:36N 49°50' W 004°12'110.9
2017-Nov-11 21:29N 49°50' W 004°10'911.4
2017-Nov-11 20:40N 49°52' W 003°56'211.8
2017-Nov-11 20:30N 49°53' W 003°53'612.1
2017-Nov-11 20:00N 49°54' W 003°44'612.4
2017-Nov-11 19:30N 49°55' W 003°34'612.4
2017-Nov-11 19:00N 49°56' W 003°25'612.5
2017-Nov-11 18:30N 49°57' W 003°15'612.3
2017-Nov-11 18:00N 49°58' W 003°06'612.2
2017-Nov-11 17:30N 49°59' W 002°57'612.1
2017-Nov-11 17:00N 50°01' W 002°47'611.8
2017-Nov-11 16:30N 50°02' W 002°39'711.1
2017-Nov-11 15:54N 50°04' W 002°29'1210.3
2017-Nov-11 14:43N 50°07' W 002°10'5 9.6
2017-Nov-11 14:14N 50°08' W 002°03'2 9.4
2017-Nov-11 14:00N 50°09' W 001°60'5 9.1
2017-Nov-11 13:30N 50°10' W 001°53'5 8.8
2017-Nov-11 13:00N 50°11' W 001°46'4 8.7
2017-Nov-11 12:30N 50°12' W 001°40'4 8.8
2017-Nov-11 12:00N 50°14' W 001°33'5 9.2
2017-Nov-11 11:30N 50°15' W 001°26'5 9.6
2017-Nov-11 11:01N 50°16' W 001°19'510.3
2017-Nov-11 10:30N 50°17' W 001°11'1111.6
2017-Nov-11 09:35N 50°20' W 000°55'1712.3
2017-Nov-11 08:11N 50°25' W 000°29'212.2
2017-Nov-11 08:00N 50°26' W 000°26'612.0
2017-Nov-11 07:30N 50°27' W 000°17'611.8
2017-Nov-11 07:00N 50°29' W 000°08'611.5
2017-Nov-11 06:30N 50°30' E 000°01'611.5
2017-Nov-11 06:00N 50°32' E 000°10'611.5
2017-Nov-11 05:30N 50°33' E 000°18'611.9
2017-Nov-11 05:00N 50°35' E 000°27'612.2
2017-Nov-11 04:30N 50°37' E 000°36'612.4
2017-Nov-11 04:00N 50°41' E 000°44'612.9
2017-Nov-11 03:30N 50°44' E 000°53'713.1
2017-Nov-11 03:00N 50°47' E 001°02'713.2
2017-Nov-11 02:30N 50°51' E 001°11'713.6
2017-Nov-11 02:01N 50°55' E 001°19'714.8
2017-Nov-11 01:31N 51°01' E 001°26'816.2
2017-Nov-11 01:01N 51°07' E 001°35'815.9
2017-Nov-11 00:31N 51°13' E 001°44'815.6
2017-Nov-11 00:01N 51°19' E 001°51'714.9
2017-Nov-10 23:31N 51°26' E 001°56'714.2
2017-Nov-10 23:00N 51°31' E 002°04'713.8
2017-Nov-10 22:30N 51°36' E 002°12'1013.2
2017-Nov-10 21:45N 51°43' E 002°22'4710.5
2017-Nov-10 17:17N 52°04' E 003°31'310.5
2017-Nov-10 16:58N 52°04' E 003°37'510.4
2017-Nov-10 16:30N 52°04' E 003°44'5 9.2
2017-Nov-10 16:00N 52°03' E 003°52'3 6.3
2017-Nov-10 15:30N 52°01' E 003°56'4 8.7
2017-Nov-10 15:00N 51°60' E 004°02'3 5.8
2017-Nov-10 14:28N 51°58' E 004°07'0 0.1
2017-Nov-10 13:58N 51°58' E 004°07'0 0.0
2017-Nov-10 13:28N 51°58' E 004°07'0 0.0
2017-Nov-10 12:58N 51°58' E 004°07'0 0.0
2017-Nov-10 12:28N 51°58' E 004°07'0 0.0
2017-Nov-10 11:58N 51°58' E 004°07'0 0.0
2017-Nov-10 11:28N 51°58' E 004°07'0 0.0
2017-Nov-10 10:58N 51°58' E 004°07'0 0.0
2017-Nov-10 10:28N 51°58' E 004°07'0 0.0
2017-Nov-10 09:58N 51°58' E 004°07'0 0.0
2017-Nov-10 09:28N 51°58' E 004°07'0 0.0
2017-Nov-10 08:58N 51°58' E 004°07'0 0.0
2017-Nov-10 08:28N 51°58' E 004°07'0 0.0
2017-Nov-10 07:58N 51°58' E 004°07'0 0.0
2017-Nov-10 07:28N 51°58' E 004°07'0 0.0
2017-Nov-10 06:55N 51°58' E 004°07'0 0.0
2017-Nov-10 06:25N 51°58' E 004°07'0 0.0
2017-Nov-10 05:58N 51°58' E 004°07'0 0.0
2017-Nov-10 05:28N 51°58' E 004°07'0 0.0
2017-Nov-10 04:58N 51°58' E 004°07'0 0.0
2017-Nov-10 04:28N 51°58' E 004°07'0 0.0
2017-Nov-10 03:58N 51°58' E 004°07'0 0.0
2017-Nov-10 03:28N 51°58' E 004°07'0 0.0
2017-Nov-10 02:58N 51°58' E 004°07'0 0.0
2017-Nov-10 02:28N 51°58' E 004°07'0 0.0
2017-Nov-10 01:58N 51°58' E 004°07'0 0.0
2017-Nov-10 01:28N 51°58' E 004°07'0 0.0
2017-Nov-10 00:58N 51°58' E 004°07'0 0.0
2017-Nov-10 00:28N 51°58' E 004°07'0 0.0
2017-Nov-09 23:58N 51°58' E 004°07'0 0.0
2017-Nov-09 23:28N 51°58' E 004°07'0 0.0
2017-Nov-09 22:58N 51°58' E 004°07'0 0.0
2017-Nov-09 22:28N 51°58' E 004°07'0 0.0
2017-Nov-09 21:58N 51°58' E 004°07'0 0.0
2017-Nov-09 21:28N 51°58' E 004°07'0 0.0
2017-Nov-09 20:58N 51°58' E 004°07'0 0.0
2017-Nov-09 20:28N 51°58' E 004°07'0 0.0
2017-Nov-09 19:58N 51°58' E 004°07'0 0.0
2017-Nov-09 19:28N 51°58' E 004°07'0 0.0
2017-Nov-09 18:58N 51°58' E 004°07'0 0.0
2017-Nov-09 18:28N 51°58' E 004°07'0 0.0
2017-Nov-09 17:58N 51°58' E 004°07'0 0.0
2017-Nov-09 17:28N 51°58' E 004°07'0 0.0
2017-Nov-09 16:58N 51°58' E 004°07'0 0.0
2017-Nov-09 16:28N 51°58' E 004°07'0 0.0
2017-Nov-09 15:58N 51°58' E 004°07'0 0.0
2017-Nov-09 15:28N 51°58' E 004°07'0 0.0
2017-Nov-09 14:58N 51°58' E 004°07'0 0.0
2017-Nov-09 14:28N 51°58' E 004°07'0 0.0
2017-Nov-09 13:58N 51°58' E 004°07'0 0.0
2017-Nov-09 13:28N 51°58' E 004°07'0 0.0
2017-Nov-09 12:58N 51°58' E 004°07'0 0.0
2017-Nov-09 12:28N 51°58' E 004°07'0 0.0
2017-Nov-09 11:58N 51°58' E 004°07'0 0.0
2017-Nov-09 11:25N 51°58' E 004°07'0 0.0
2017-Nov-09 10:58N 51°58' E 004°07'0 0.0
2017-Nov-09 10:28N 51°58' E 004°07'0 0.0
2017-Nov-09 09:58N 51°58' E 004°07'0 0.0
2017-Nov-09 09:28N 51°58' E 004°07'0 0.0
2017-Nov-09 08:55N 51°58' E 004°07'0 0.0
2017-Nov-09 08:28N 51°58' E 004°07'0 0.0
2017-Nov-09 07:58N 51°58' E 004°07'0 0.0
2017-Nov-09 07:28N 51°58' E 004°07'0 0.0
2017-Nov-09 06:58N 51°58' E 004°07'0 0.0
2017-Nov-09 06:28N 51°58' E 004°07'0 0.0
2017-Nov-09 05:58N 51°58' E 004°07'0 0.0
2017-Nov-09 05:28N 51°58' E 004°07'0 0.0
2017-Nov-09 04:58N 51°58' E 004°07'0 0.0
2017-Nov-09 04:28N 51°58' E 004°07'0 0.0
2017-Nov-09 03:58N 51°58' E 004°07'0 0.0
2017-Nov-09 03:28N 51°58' E 004°07'0 0.0
2017-Nov-09 02:58N 51°58' E 004°07'0 0.0
2017-Nov-09 02:28N 51°58' E 004°07'0 0.0
2017-Nov-09 01:58N 51°58' E 004°07'0 0.0
2017-Nov-09 01:28N 51°58' E 004°07'  
Track history (hours):
 
Tides and Currents Weather Stations Pressure Air Temp Water Temp Dewpoint Dewpoint Depression Visibility Wind Speed Wind Dir Waves Ship Positions

Vittoria

Last reported at 2017-Nov-19 01:06 UTC. Time now 2017-Dec-11 19:09 UTC.
Position N 51°01' W 057°43'.
Warning: this ship's position is 22 days out of date.

Length 292 m; draft 9.7 m.

Type: Cargo ship. MMSI: 256458000.

Date/timePositionNaut miles runAvg speedWind from/ knotsBaromVisibWave heightAir tempDewpointWater temp
2017-Nov-19 01:06N 51°01' W 057°43'212.1
2017-Nov-19 00:58N 51°02' W 057°41'612.3
2017-Nov-19 00:30N 51°06' W 057°34'712.1
2017-Nov-18 23:57N 51°10' W 057°26'  
2017-Nov-11 22:35N 49°49' W 004°28'110.7
2017-Nov-11 22:30N 49°49' W 004°27'1010.7
2017-Nov-11 21:36N 49°50' W 004°12'110.9
2017-Nov-11 21:29N 49°50' W 004°10'911.4
2017-Nov-11 20:40N 49°52' W 003°56'211.8
2017-Nov-11 20:30N 49°53' W 003°53'612.1
2017-Nov-11 20:00N 49°54' W 003°44'612.4
2017-Nov-11 19:30N 49°55' W 003°34'612.4
2017-Nov-11 19:00N 49°56' W 003°25'612.5
2017-Nov-11 18:30N 49°57' W 003°15'612.3
2017-Nov-11 18:00N 49°58' W 003°06'612.2
2017-Nov-11 17:30N 49°59' W 002°57'612.1
2017-Nov-11 17:00N 50°01' W 002°47'611.8
2017-Nov-11 16:30N 50°02' W 002°39'711.1
2017-Nov-11 15:54N 50°04' W 002°29'1210.3
2017-Nov-11 14:43N 50°07' W 002°10'5 9.6
2017-Nov-11 14:14N 50°08' W 002°03'2 9.4
2017-Nov-11 14:00N 50°09' W 001°60'5 9.1
2017-Nov-11 13:30N 50°10' W 001°53'5 8.8
2017-Nov-11 13:00N 50°11' W 001°46'4 8.7
2017-Nov-11 12:30N 50°12' W 001°40'4 8.8
2017-Nov-11 12:00N 50°14' W 001°33'5 9.2
2017-Nov-11 11:30N 50°15' W 001°26'5 9.6
2017-Nov-11 11:01N 50°16' W 001°19'510.3
2017-Nov-11 10:30N 50°17' W 001°11'1111.6
2017-Nov-11 09:35N 50°20' W 000°55'1712.3
2017-Nov-11 08:11N 50°25' W 000°29'212.2
2017-Nov-11 08:00N 50°26' W 000°26'612.0
2017-Nov-11 07:30N 50°27' W 000°17'611.8
2017-Nov-11 07:00N 50°29' W 000°08'611.5
2017-Nov-11 06:30N 50°30' E 000°01'611.5
2017-Nov-11 06:00N 50°32' E 000°10'611.5
2017-Nov-11 05:30N 50°33' E 000°18'611.9
2017-Nov-11 05:00N 50°35' E 000°27'612.2
2017-Nov-11 04:30N 50°37' E 000°36'612.4
2017-Nov-11 04:00N 50°41' E 000°44'612.9
2017-Nov-11 03:30N 50°44' E 000°53'713.1
2017-Nov-11 03:00N 50°47' E 001°02'713.2
2017-Nov-11 02:30N 50°51' E 001°11'713.6
2017-Nov-11 02:01N 50°55' E 001°19'714.8
2017-Nov-11 01:31N 51°01' E 001°26'816.2
2017-Nov-11 01:01N 51°07' E 001°35'815.9
2017-Nov-11 00:31N 51°13' E 001°44'815.6
2017-Nov-11 00:01N 51°19' E 001°51'714.9
2017-Nov-10 23:31N 51°26' E 001°56'714.2
2017-Nov-10 23:00N 51°31' E 002°04'713.8
2017-Nov-10 22:30N 51°36' E 002°12'1013.2
2017-Nov-10 21:45N 51°43' E 002°22'4710.5
2017-Nov-10 17:17N 52°04' E 003°31'310.5
2017-Nov-10 16:58N 52°04' E 003°37'510.4
2017-Nov-10 16:30N 52°04' E 003°44'5 9.2
2017-Nov-10 16:00N 52°03' E 003°52'3 6.3
2017-Nov-10 15:30N 52°01' E 003°56'4 8.7
2017-Nov-10 15:00N 51°60' E 004°02'3 5.8
2017-Nov-10 14:28N 51°58' E 004°07'0 0.1
2017-Nov-10 13:58N 51°58' E 004°07'0 0.0
2017-Nov-10 13:28N 51°58' E 004°07'0 0.0
2017-Nov-10 12:58N 51°58' E 004°07'0 0.0
2017-Nov-10 12:28N 51°58' E 004°07'0 0.0
2017-Nov-10 11:58N 51°58' E 004°07'0 0.0
2017-Nov-10 11:28N 51°58' E 004°07'0 0.0
2017-Nov-10 10:58N 51°58' E 004°07'0 0.0
2017-Nov-10 10:28N 51°58' E 004°07'0 0.0
2017-Nov-10 09:58N 51°58' E 004°07'0 0.0
2017-Nov-10 09:28N 51°58' E 004°07'0 0.0
2017-Nov-10 08:58N 51°58' E 004°07'0 0.0
2017-Nov-10 08:28N 51°58' E 004°07'0 0.0
2017-Nov-10 07:58N 51°58' E 004°07'0 0.0
2017-Nov-10 07:28N 51°58' E 004°07'0 0.0
2017-Nov-10 06:55N 51°58' E 004°07'0 0.0
2017-Nov-10 06:25N 51°58' E 004°07'0 0.0
2017-Nov-10 05:58N 51°58' E 004°07'0 0.0
2017-Nov-10 05:28N 51°58' E 004°07'0 0.0
2017-Nov-10 04:58N 51°58' E 004°07'0 0.0
2017-Nov-10 04:28N 51°58' E 004°07'0 0.0
2017-Nov-10 03:58N 51°58' E 004°07'0 0.0
2017-Nov-10 03:28N 51°58' E 004°07'0 0.0
2017-Nov-10 02:58N 51°58' E 004°07'0 0.0
2017-Nov-10 02:28N 51°58' E 004°07'0 0.0
2017-Nov-10 01:58N 51°58' E 004°07'0 0.0
2017-Nov-10 01:28N 51°58' E 004°07'0 0.0
2017-Nov-10 00:58N 51°58' E 004°07'0 0.0
2017-Nov-10 00:28N 51°58' E 004°07'0 0.0
2017-Nov-09 23:58N 51°58' E 004°07'0 0.0
2017-Nov-09 23:28N 51°58' E 004°07'0 0.0
2017-Nov-09 22:58N 51°58' E 004°07'0 0.0
2017-Nov-09 22:28N 51°58' E 004°07'0 0.0
2017-Nov-09 21:58N 51°58' E 004°07'0 0.0
2017-Nov-09 21:28N 51°58' E 004°07'0 0.0
2017-Nov-09 20:58N 51°58' E 004°07'0 0.0
2017-Nov-09 20:28N 51°58' E 004°07'0 0.0
2017-Nov-09 19:58N 51°58' E 004°07'0 0.0
2017-Nov-09 19:28N 51°58' E 004°07'0 0.0
2017-Nov-09 18:58N 51°58' E 004°07'0 0.0
2017-Nov-09 18:28N 51°58' E 004°07'0 0.0
2017-Nov-09 17:58N 51°58' E 004°07'0 0.0
2017-Nov-09 17:28N 51°58' E 004°07'0 0.0
2017-Nov-09 16:58N 51°58' E 004°07'0 0.0
2017-Nov-09 16:28N 51°58' E 004°07'0 0.0
2017-Nov-09 15:58N 51°58' E 004°07'0 0.0
2017-Nov-09 15:28N 51°58' E 004°07'0 0.0
2017-Nov-09 14:58N 51°58' E 004°07'0 0.0
2017-Nov-09 14:28N 51°58' E 004°07'0 0.0
2017-Nov-09 13:58N 51°58' E 004°07'0 0.0
2017-Nov-09 13:28N 51°58' E 004°07'0 0.0
2017-Nov-09 12:58N 51°58' E 004°07'0 0.0
2017-Nov-09 12:28N 51°58' E 004°07'0 0.0
2017-Nov-09 11:58N 51°58' E 004°07'0 0.0
2017-Nov-09 11:25N 51°58' E 004°07'0 0.0
2017-Nov-09 10:58N 51°58' E 004°07'0 0.0
2017-Nov-09 10:28N 51°58' E 004°07'0 0.0
2017-Nov-09 09:58N 51°58' E 004°07'0 0.0
2017-Nov-09 09:28N 51°58' E 004°07'0 0.0
2017-Nov-09 08:55N 51°58' E 004°07'0 0.0
2017-Nov-09 08:28N 51°58' E 004°07'0 0.0
2017-Nov-09 07:58N 51°58' E 004°07'0 0.0
2017-Nov-09 07:28N 51°58' E 004°07'0 0.0
2017-Nov-09 06:58N 51°58' E 004°07'0 0.0
2017-Nov-09 06:28N 51°58' E 004°07'0 0.0
2017-Nov-09 05:58N 51°58' E 004°07'0 0.0
2017-Nov-09 05:28N 51°58' E 004°07'0 0.0
2017-Nov-09 04:58N 51°58' E 004°07'0 0.0
2017-Nov-09 04:28N 51°58' E 004°07'0 0.0
2017-Nov-09 03:58N 51°58' E 004°07'0 0.0
2017-Nov-09 03:28N 51°58' E 004°07'0 0.0
2017-Nov-09 02:58N 51°58' E 004°07'0 0.0
2017-Nov-09 02:28N 51°58' E 004°07'0 0.0
2017-Nov-09 01:58N 51°58' E 004°07'0 0.0
2017-Nov-09 01:28N 51°58' E 004°07'  

Dump ship's entire track history